createdAt,value
2022-12-09T02:15:55.101Z,99647.78
2022-12-09T02:18:35.529Z,99626.38
2022-12-09T02:21:10.691Z,99643.84
2022-12-09T02:23:41.433Z,99655.22
2022-12-09T02:26:25.953Z,99652.81
2022-12-09T02:29:26.529Z,99648.66
2022-12-09T02:32:22.172Z,99655.72
2022-12-09T02:34:59.648Z,99648.91
2022-12-09T02:37:55.415Z,99642.03
2022-12-09T02:40:55.795Z,99649.88
2022-12-09T02:43:26.838Z,99623.03
2022-12-09T02:45:56.832Z,99625.66
2022-12-09T02:48:40.324Z,99615.28
2022-12-09T02:51:12.960Z,99620.47
2022-12-09T02:53:40.422Z,99617.03
2022-12-09T02:56:09.585Z,99606.63
2022-12-09T02:58:37.999Z,99604.03
2022-12-09T03:01:07.370Z,99615.28
2022-12-09T03:03:36.248Z,99598.78
2022-12-09T03:06:10.503Z,99612.63
2022-12-09T03:08:47.378Z,99610.03
2022-12-09T03:11:19.350Z,99607.41
2022-12-09T03:14:08.132Z,99610.88
2022-12-09T03:16:52.990Z,99612.63
2022-12-09T03:19:34.327Z,99606.56
2022-12-09T03:22:06.549Z,99615.22
2022-12-09T03:24:42.032Z,99609.13
2022-12-09T03:27:15.746Z,99622.13
2022-12-09T03:29:49.255Z,99629.13
2022-12-09T03:32:20.538Z,99618.69
2022-12-09T03:34:52.053Z,99622.19
2022-12-09T03:37:21.915Z,99622.19
2022-12-09T03:39:52.141Z,99609.16
2022-12-09T03:42:27.268Z,99610.00
2022-12-09T03:45:01.262Z,99607.41
2022-12-09T03:47:33.255Z,99602.19
2022-12-09T03:50:00.827Z,99582.25
2022-12-09T03:52:39.694Z,99591.78
2022-12-09T03:55:29.544Z,99596.09
2022-12-09T03:58:00.808Z,99598.72
2022-12-09T04:00:29.497Z,99599.59
2022-12-09T04:02:59.219Z,99591.78
2022-12-09T04:05:28.460Z,99594.41
2022-12-09T04:07:56.424Z,99590.91
2022-12-09T04:10:24.414Z,99590.03
2022-12-09T04:12:52.046Z,99588.28
2022-12-09T04:15:19.969Z,99577.03
2022-12-09T04:17:47.853Z,99580.47
2022-12-09T04:20:15.721Z,99577.03
2022-12-09T04:22:43.412Z,99579.63
2022-12-09T04:25:11.051Z,99570.06
2022-12-09T04:27:38.428Z,99579.63
2022-12-09T04:30:07.288Z,99568.31
2022-12-09T04:32:35.336Z,99570.06
2022-12-09T04:35:03.928Z,99567.47
2022-12-09T04:37:32.129Z,99568.31
2022-12-09T04:40:00.475Z,99573.50
2022-12-09T04:42:29.192Z,99573.50
2022-12-09T04:44:57.222Z,99564.84
2022-12-09T04:47:24.772Z,99563.09
2022-12-09T04:49:52.561Z,99548.34
2022-12-09T04:52:20.588Z,99555.28
2022-12-09T04:54:51.072Z,99548.34
2022-12-09T04:57:20.213Z,99546.63
2022-12-09T04:59:47.823Z,99550.97
2022-12-09T05:02:15.658Z,99552.72
2022-12-09T05:04:43.188Z,99543.19
2022-12-09T05:07:11.972Z,99534.53
2022-12-09T05:09:39.237Z,99537.16
2022-12-09T05:12:07.445Z,99538.00
2022-12-09T05:14:35.099Z,99542.38
2022-12-09T05:17:03.958Z,99539.78
2022-12-09T05:19:32.196Z,99541.53
2022-12-09T05:22:00.542Z,99533.66
2022-12-09T05:24:28.440Z,99541.47
2022-12-09T05:26:56.046Z,99532.84
2022-12-09T05:29:23.784Z,99527.63
2022-12-09T05:31:52.532Z,99532.00
2022-12-09T05:34:20.490Z,99541.53
2022-12-09T05:36:48.777Z,99546.75
2022-12-09T05:39:16.451Z,99542.44
2022-12-09T05:41:44.129Z,99551.13
2022-12-09T05:44:12.880Z,99545.09
2022-12-09T05:46:41.092Z,99547.69
2022-12-09T05:49:09.486Z,99546.84
2022-12-09T05:51:37.922Z,99537.28
2022-12-09T05:54:06.514Z,99538.19
2022-12-09T05:56:34.555Z,99538.19
2022-12-09T05:59:02.003Z,99533.00
2022-12-09T06:01:30.182Z,99545.13
2022-12-09T06:03:57.882Z,99554.63
2022-12-09T06:06:28.420Z,99552.03
2022-12-09T06:08:59.892Z,99556.38
2022-12-09T06:11:28.173Z,99549.44
2022-12-09T06:13:56.259Z,99550.31
2022-12-09T06:16:24.900Z,99553.78
2022-12-09T06:18:52.886Z,99551.19
2022-12-09T06:21:21.852Z,99549.44
2022-12-09T11:11:38.938Z,99315.94
2022-12-09T11:14:22.372Z,99307.81
2022-12-09T11:16:56.518Z,99310.88
2022-12-09T11:19:39.072Z,99307.75
2022-12-09T11:22:22.151Z,99309.78
2022-12-09T11:24:56.730Z,99309.09
2022-12-09T11:27:31.119Z,99299.69
2022-12-09T11:30:14.119Z,99295.00
2022-12-09T11:33:03.524Z,99298.63
2022-12-09T11:35:43.699Z,99291.06
2022-12-09T11:38:36.439Z,99281.22
2022-12-09T11:41:10.025Z,99286.19
2022-12-09T11:43:40.111Z,99286.00
2022-12-09T11:46:21.522Z,99288.50
2022-12-09T11:48:51.917Z,99303.44
2022-12-09T11:51:31.463Z,99299.94
2022-12-09T11:54:05.206Z,99304.47
2022-12-09T11:56:35.780Z,99303.00
2022-12-09T11:59:18.806Z,99293.63
2022-12-09T12:02:08.194Z,99294.69
2022-12-09T12:04:55.230Z,99291.31
2022-12-09T12:07:30.815Z,99301.16
2022-12-09T12:09:58.935Z,99316.03
2022-12-09T12:12:45.524Z,99309.19
2022-12-09T12:15:20.553Z,99318.94
2022-12-09T12:17:53.303Z,99312.09
2022-12-09T12:20:21.896Z,99307.09
2022-12-09T12:23:14.870Z,99308.19
2022-12-09T12:26:04.756Z,99307.56
2022-12-09T12:29:02.542Z,99316.59
2022-12-09T12:31:45.441Z,99313.28
2022-12-09T12:34:39.477Z,99312.53
2022-12-09T12:37:25.074Z,99308.38
2022-12-09T12:40:05.022Z,99304.09
2022-12-09T12:43:14.906Z,99305.00
2022-12-09T12:46:13.194Z,99301.59
2022-12-09T12:48:58.913Z,99299.13
2022-12-09T12:51:32.867Z,99304.38
2022-12-09T12:54:16.439Z,99304.47
2022-12-09T12:56:58.866Z,99290.50
2022-12-09T12:59:44.620Z,99285.31
2022-12-09T13:02:20.964Z,99292.34
2022-12-09T13:05:24.859Z,99297.69
2022-12-09T13:07:59.740Z,99294.38
2022-12-09T13:10:42.250Z,99306.69
2022-12-09T13:13:22.888Z,99303.22
2022-12-09T13:15:53.990Z,99302.31
2022-12-09T13:18:33.187Z,99298.91
2022-12-09T13:21:02.440Z,99308.53
2022-12-09T13:24:04.314Z,99312.09
2022-12-09T13:26:41.368Z,99309.50
2022-12-09T13:29:36.374Z,99303.41
2022-12-09T13:32:19.018Z,99298.28
2022-12-09T13:34:52.823Z,99298.31
2022-12-09T13:37:48.164Z,99299.25
2022-12-09T13:40:33.075Z,99286.19
2022-12-09T13:43:02.813Z,99281.91
2022-12-09T13:45:44.994Z,99281.09
2022-12-09T13:48:17.004Z,99294.22
2022-12-09T13:50:57.853Z,99297.75
2022-12-09T13:53:34.671Z,99295.19
2022-12-09T13:56:23.078Z,99290.88
2022-12-09T13:59:03.983Z,99287.41
2022-12-09T14:01:35.026Z,99283.97
2022-12-09T14:04:08.585Z,99297.03
2022-12-09T14:06:56.859Z,99286.63
2022-12-09T14:09:33.382Z,99277.06
2022-12-09T14:12:05.410Z,99276.19
2022-12-09T14:14:33.433Z,99285.78
2022-12-09T14:17:05.012Z,99280.59
2022-12-09T14:19:46.865Z,99286.72
2022-12-09T14:22:20.609Z,99290.25
2022-12-09T14:24:51.677Z,99288.53
2022-12-09T18:21:40.842Z,99255.78
2022-12-09T18:24:08.771Z,99259.97
2022-12-09T18:26:41.686Z,99258.09
2022-12-09T18:29:10.985Z,99256.16
2022-12-09T18:31:38.773Z,99261.13
2022-12-09T18:34:06.145Z,99266.09
2022-12-09T18:36:33.784Z,99257.25
2022-12-09T18:39:01.049Z,99265.72
2022-12-09T18:41:30.453Z,99260.31
2022-12-09T18:43:59.987Z,99258.41
2022-12-09T18:46:30.524Z,99251.28
2022-12-09T18:49:00.029Z,99251.13
2022-12-09T18:51:28.626Z,99243.16
2022-12-09T18:53:58.764Z,99240.41
2022-12-09T18:56:27.249Z,99236.00
2022-12-09T18:59:11.000Z,99236.72
2022-12-09T19:01:41.253Z,99234.91
2022-12-09T19:04:35.298Z,99232.19
2022-12-09T19:07:02.639Z,99226.06
2022-12-09T19:09:33.612Z,99227.75
2022-12-09T19:12:22.912Z,99224.19
2022-12-09T19:14:50.970Z,99221.50
2022-12-09T19:17:19.395Z,99220.63
2022-12-09T19:19:47.555Z,99208.41
2022-12-09T19:22:15.035Z,99204.94
2022-12-09T19:24:43.304Z,99206.72
2022-12-09T19:27:11.050Z,99207.53
2022-12-09T19:29:39.785Z,99204.06
2022-12-09T19:32:23.591Z,99188.41
2022-12-09T19:34:54.636Z,99189.28
2022-12-09T19:37:22.222Z,99194.47
2022-12-09T19:39:50.404Z,99195.31
2022-12-09T19:42:19.353Z,99189.25
2022-12-09T19:45:07.701Z,99190.97
2022-12-09T19:47:35.774Z,99184.94
2022-12-09T19:50:03.106Z,99191.03
2022-12-09T19:52:30.312Z,99191.91
2022-12-09T19:54:57.375Z,99192.72
2022-12-09T19:57:24.706Z,99201.41
2022-12-09T19:59:51.924Z,99201.34
2022-12-09T20:02:19.364Z,99195.28
2022-12-09T20:04:51.392Z,99199.66
2022-12-09T20:07:20.121Z,99193.53
2022-12-09T20:09:47.599Z,99210.06
2022-12-09T20:12:15.041Z,99210.19
2022-12-09T20:14:43.290Z,99214.47
2022-12-09T20:17:12.668Z,99203.13
2022-12-09T20:19:39.575Z,99189.19
2022-12-09T20:22:06.924Z,99189.19
2022-12-09T20:24:36.005Z,99185.66
2022-12-09T20:27:03.104Z,99185.66
2022-12-09T20:29:35.727Z,99187.41
2022-12-09T20:32:05.500Z,99192.63
2022-12-09T20:34:32.301Z,99209.13
2022-12-09T20:36:59.271Z,99207.38
2022-12-09T20:39:32.100Z,99209.00
2022-12-09T20:42:00.477Z,99218.56
2022-12-09T20:44:27.793Z,99203.75
2022-12-09T20:47:02.735Z,99201.06
2022-12-09T20:49:30.567Z,99199.34
2022-12-09T20:51:57.830Z,99194.09
2022-12-09T20:54:25.158Z,99202.78
2022-12-09T20:56:53.201Z,99203.63
2022-12-09T20:59:20.184Z,99200.22
2022-12-09T21:01:47.335Z,99200.19
2022-12-09T21:04:15.556Z,99197.53
2022-12-09T21:06:43.403Z,99205.31
2022-12-09T21:09:14.819Z,99197.47
2022-12-09T21:11:41.829Z,99205.28
2022-12-09T21:14:09.867Z,99207.91
2022-12-09T21:16:42.641Z,99207.84
2022-12-09T21:19:13.063Z,99211.34
2022-12-09T21:21:42.150Z,99202.59
2022-12-09T21:24:13.138Z,99191.38
2022-12-09T21:26:41.025Z,99186.91
2022-12-09T21:29:08.474Z,99179.03
2022-12-09T21:31:38.156Z,99175.53
2022-12-09T21:34:06.461Z,99179.88
2022-12-09T21:36:41.320Z,99180.72
2022-12-09T21:39:10.908Z,99180.78
2022-12-09T21:41:38.303Z,99178.13
2022-12-09T21:44:06.937Z,99179.84
2022-12-09T21:46:36.780Z,99181.56
2022-12-09T21:49:06.066Z,99178.94
2022-12-09T21:51:35.043Z,99174.56
2022-12-09T21:54:02.545Z,99168.44
2022-12-09T21:56:31.376Z,99167.56
2022-12-09T21:58:59.412Z,99158.84
2022-12-09T22:01:35.545Z,99149.28
2022-12-09T22:04:04.681Z,99149.28
2022-12-09T22:06:31.861Z,99140.56
2022-12-09T22:09:00.346Z,99133.66
2022-12-09T22:11:30.425Z,99121.41
2022-12-09T22:13:59.115Z,99124.09
2022-12-09T22:16:29.651Z,99128.53
2022-12-09T22:18:58.776Z,99122.41
2022-12-09T22:21:29.700Z,99115.41
2022-12-09T22:23:59.491Z,99111.03
2022-12-09T22:26:26.925Z,99112.84
2022-12-09T22:28:54.802Z,99118.06
2022-12-09T22:31:24.684Z,99110.22
2022-12-09T22:33:53.908Z,99116.38
2022-12-09T22:36:21.902Z,99119.81
2022-12-09T22:38:49.020Z,99119.78
2022-12-09T22:41:18.708Z,99114.53
2022-12-09T22:43:48.452Z,99111.94
2022-12-09T22:46:18.694Z,99117.09
2022-12-09T22:48:46.161Z,99116.22
2022-12-09T22:51:16.971Z,99116.25
2022-12-09T22:53:45.698Z,99117.94
2022-12-09T22:56:13.081Z,99117.88
2022-12-09T22:58:40.529Z,99118.69
2022-12-09T23:01:17.041Z,99121.25
2022-12-09T23:03:45.065Z,99119.50
2022-12-09T23:06:12.638Z,99113.44
2022-12-09T23:08:41.595Z,99108.16
2022-12-09T23:11:12.440Z,99101.19
2022-12-09T23:13:41.373Z,99103.75
2022-12-09T23:16:12.722Z,99093.31
2022-12-09T23:18:40.443Z,99080.28
2022-12-09T23:21:10.258Z,99070.72
2022-12-09T23:23:37.616Z,99077.78
2022-12-09T23:26:08.247Z,99073.44
2022-12-09T23:28:41.877Z,99073.44
2022-12-09T23:31:11.156Z,99095.25
2022-12-09T23:33:39.765Z,99098.69
2022-12-09T23:36:08.163Z,99095.28
2022-12-09T23:38:36.094Z,99092.75
2022-12-09T23:41:05.247Z,99107.59
2022-12-09T23:43:33.943Z,99099.72
2022-12-09T23:46:12.921Z,99094.56
2022-12-09T23:48:43.529Z,99081.47
2022-12-09T23:51:14.674Z,99079.66
2022-12-09T23:53:43.686Z,99065.81
2022-12-09T23:56:12.820Z,99071.03
2022-12-09T23:58:41.512Z,99066.75
